Time;durP1;ratioP1;P1;durP2;ratioP2;P2;SDS_P1;SDS_P2;PMS_P1;PMS_P2;Temp;Humidity;BMP_temperature;BMP_pressure;BME280_temperature;BME280_humidity;BME280_pressure;Samples;Min_cycle;Max_cycle;Signal;HPM_P1;HPM_P2
2023/04/12 00:01:00;;;;;;;17.88;12.13;;;;;;;8.47;68.32;94339.94;5069282;28;20033;-75
2023/04/12 00:03:26;;;;;;;24.95;13.23;;;;;;;8.23;68.20;94306.63;5067261;28;20123;-76
2023/04/12 00:05:54;;;;;;;24.58;12.63;;;;;;;8.25;67.66;94315.81;5058189;28;20033;-76
2023/04/12 00:08:25;;;;;;;24.17;13.02;;;;;;;8.34;67.98;94308.09;5061950;28;20044;-76
2023/04/12 00:10:51;;;;;;;18.60;12.20;;;;;;;8.05;68.02;94279.84;5067481;28;20040;-76
2023/04/12 00:13:18;;;;;;;21.38;13.13;;;;;;;8.47;68.41;94341.78;5067263;28;20033;-76
2023/04/12 00:15:44;;;;;;;28.63;13.35;;;;;;;8.34;67.94;94324.75;5069446;28;20121;-76
2023/04/12 00:18:10;;;;;;;18.42;12.85;;;;;;;8.42;68.45;94321.50;5068681;28;20029;-76
2023/04/12 00:20:35;;;;;;;22.67;13.18;;;;;;;8.00;67.80;94258.78;5068777;28;20123;-75
2023/04/12 00:23:01;;;;;;;23.73;13.07;;;;;;;8.31;67.93;94306.81;5068631;28;20893;-76
2023/04/12 00:25:26;;;;;;;22.45;12.82;;;;;;;8.48;68.37;94341.50;5068995;28;20025;-76
2023/04/12 00:27:52;;;;;;;28.83;14.25;;;;;;;8.39;68.18;94319.41;5066744;28;20514;-76
2023/04/12 00:30:17;;;;;;;26.67;13.15;;;;;;;8.37;68.18;94307.56;5058474;28;20082;-76
2023/04/12 00:32:43;;;;;;;20.00;12.40;;;;;;;8.48;68.41;94336.22;5071983;28;20120;-76
2023/04/12 00:35:08;;;;;;;21.52;12.43;;;;;;;8.37;68.58;94308.34;5071708;28;20031;-76
2023/04/12 00:37:35;;;;;;;25.10;14.38;;;;;;;8.00;68.24;94258.78;5063901;28;20033;-75
2023/04/12 00:40:01;;;;;;;22.50;13.93;;;;;;;8.44;68.46;94323.84;5061811;28;20038;-75
2023/04/12 00:42:27;;;;;;;22.77;14.43;;;;;;;8.09;68.60;94285.34;5072465;28;20025;-76
2023/04/12 00:44:52;;;;;;;20.92;13.45;;;;;;;8.23;68.53;94312.69;5070197;28;20056;-75
2023/04/12 00:47:18;;;;;;;20.48;13.50;;;;;;;8.03;68.31;94270.63;5071938;28;20032;-76
2023/04/12 00:49:44;;;;;;;28.38;14.07;;;;;;;8.26;68.77;94303.41;5072415;28;20029;-75
2023/04/12 00:52:13;;;;;;;24.73;13.45;;;;;;;8.26;68.62;94301.53;5071296;28;20509;-76
2023/04/12 00:54:39;;;;;;;23.17;12.88;;;;;;;8.04;68.62;94272.19;5054918;28;20036;-76
2023/04/12 00:57:05;;;;;;;19.55;13.20;;;;;;;8.05;68.69;94289.59;5069281;28;20028;-75
2023/04/12 00:59:30;;;;;;;20.92;13.50;;;;;;;8.24;68.68;94310.84;5071816;28;20031;-76
2023/04/12 01:01:57;;;;;;;22.92;13.82;;;;;;;8.29;68.39;94297.56;5072476;28;20027;-75
2023/04/12 01:04:25;;;;;;;26.30;13.48;;;;;;;8.52;68.09;94310.81;5070801;28;20113;-76
2023/04/12 01:07:36;;;;;;;23.38;14.73;;;;;;;8.45;68.18;94313.00;5072616;28;20056;-75
2023/04/12 01:10:01;;;;;;;22.50;13.57;;;;;;;8.42;68.46;94308.28;5072516;28;20546;-76
2023/04/12 01:12:53;;;;;;;23.38;14.60;;;;;;;8.35;68.26;94312.31;5070299;28;20414;-76
2023/04/12 01:15:18;;;;;;;26.25;14.23;;;;;;;8.39;68.50;94302.78;5069233;28;20043;-76
2023/04/12 01:18:06;;;;;;;21.90;14.13;;;;;;;8.22;67.95;94284.69;5070186;28;20347;-76
2023/04/12 01:20:43;;;;;;;21.58;13.25;;;;;;;8.01;68.38;94256.91;5071684;28;20537;-75
2023/04/12 01:23:21;;;;;;;24.70;13.70;;;;;;;8.23;68.50;94296.84;5061749;28;20055;-75
2023/04/12 01:26:14;;;;;;;25.10;13.95;;;;;;;8.34;68.22;94310.75;5063328;28;20029;-76
2023/04/12 01:28:42;;;;;;;25.70;14.75;;;;;;;7.56;68.52;94192.91;5071458;28;20040;-76
2023/04/12 01:31:09;;;;;;;22.35;14.57;;;;;;;8.26;68.54;94293.63;5071018;28;20028;-76
2023/04/12 01:33:37;;;;;;;24.88;13.73;;;;;;;8.35;68.59;94299.91;5069963;28;20514;-76
2023/04/12 01:36:15;;;;;;;25.20;14.20;;;;;;;8.20;68.82;94297.38;5069920;28;20686;-76
2023/04/12 01:38:42;;;;;;;25.85;14.07;;;;;;;7.44;68.43;94174.06;5069762;28;20024;-76
2023/04/12 01:41:09;;;;;;;31.15;14.55;;;;;;;7.99;68.75;94251.91;5070185;28;20025;-76
2023/04/12 01:43:45;;;;;;;27.55;14.93;;;;;;;8.16;68.87;94279.75;5069768;28;20021;-76
2023/04/12 01:46:17;;;;;;;25.58;14.63;;;;;;;8.14;69.13;94290.59;5070849;28;20519;-75
2023/04/12 01:48:50;;;;;;;27.17;15.75;;;;;;;8.21;69.40;94309.53;5071946;28;20039;-75
2023/04/12 01:51:27;;;;;;;23.67;14.40;;;;;;;7.75;70.20;94243.97;5071403;28;20021;-74
2023/04/12 01:53:58;;;;;;;25.77;14.82;;;;;;;8.14;69.98;94295.88;5070468;28;20383;-74
2023/04/12 01:56:26;;;;;;;;;;;;;;;8.13;69.85;94294.28;5070010;28;20441;-73
2023/04/12 01:58:54;;;;;;;31.20;16.48;;;;;;;8.17;70.36;94295.28;5054764;28;19916;-75
2023/04/12 02:01:22;;;;;;;26.98;17.15;;;;;;;8.00;70.60;94287.03;5070224;28;20375;-76
2023/04/12 02:03:49;;;;;;;25.73;15.95;;;;;;;7.85;70.61;94261.56;5070236;28;20056;-76
2023/04/12 02:06:18;;;;;;;27.80;15.32;;;;;;;7.89;70.43;94259.13;5070211;28;20020;-77
2023/04/12 02:08:44;;;;;;;32.90;17.40;;;;;;;7.76;70.64;94250.03;5067539;28;20131;-76
2023/04/12 02:11:10;;;;;;;27.30;16.13;;;;;;;8.05;70.61;94300.97;5069779;28;20108;-76
2023/04/12 02:13:36;;;;;;;31.80;15.52;;;;;;;8.11;70.40;94291.13;5069677;28;20119;-76
2023/04/12 02:16:01;;;;;;;29.83;16.30;;;;;;;7.88;70.57;94260.19;5068279;28;20096;-76
2023/04/12 02:18:27;;;;;;;32.78;16.90;;;;;;;7.82;70.48;94250.75;5067792;28;20308;-76
2023/04/12 02:20:53;;;;;;;28.95;15.70;;;;;;;7.97;70.61;94282.28;5069679;28;20051;-76
2023/04/12 02:23:18;;;;;;;25.40;15.18;;;;;;;7.89;70.46;94278.41;5069219;28;20029;-76
2023/04/12 02:25:45;;;;;;;27.63;16.40;;;;;;;7.83;70.29;94258.41;5069464;28;20090;-76
2023/04/12 02:28:12;;;;;;;25.98;17.00;;;;;;;8.02;70.01;94287.50;5068016;28;20098;-76
2023/04/12 02:30:37;;;;;;;26.48;15.75;;;;;;;7.99;69.86;94290.72;5067809;28;20089;-76
2023/04/12 02:33:04;;;;;;;26.77;15.88;;;;;;;8.00;70.31;94297.59;5069412;28;20036;-76
2023/04/12 02:35:30;;;;;;;33.08;15.65;;;;;;;8.00;70.23;94292.31;5068188;28;20039;-76
2023/04/12 02:37:56;;;;;;;34.30;17.88;;;;;;;8.00;70.34;94295.75;5068257;28;20142;-76
2023/04/12 02:40:22;;;;;;;33.28;17.52;;;;;;;7.73;70.35;94250.56;5068905;28;20029;-76
2023/04/12 02:42:47;;;;;;;29.35;16.77;;;;;;;7.66;70.49;94258.03;5069089;28;20032;-76
2023/04/12 02:45:13;;;;;;;28.90;16.67;;;;;;;7.47;70.69;94220.19;5068687;28;20548;-76
2023/04/12 02:47:39;;;;;;;29.85;17.15;;;;;;;7.88;70.88;94271.53;5069247;28;20051;-76
2023/04/12 02:50:06;;;;;;;27.45;16.05;;;;;;;7.72;70.90;94255.06;5066723;28;20028;-76
2023/04/12 02:52:31;;;;;;;27.25;16.20;;;;;;;7.82;70.39;94259.47;5069232;28;20029;-76
2023/04/12 02:54:57;;;;;;;25.02;15.52;;;;;;;7.77;70.54;94254.25;5067504;28;20069;-76
2023/04/12 02:57:23;;;;;;;29.38;15.48;;;;;;;7.81;70.22;94259.72;5067496;28;20037;-76
2023/04/12 02:59:52;;;;;;;26.88;16.05;;;;;;;7.79;70.07;94257.38;5067017;28;20613;-76
2023/04/12 03:02:19;;;;;;;29.65;16.65;;;;;;;7.97;70.39;94288.38;5067951;28;20031;-76
2023/04/12 03:04:46;;;;;;;28.85;16.38;;;;;;;7.75;69.90;94235.25;5067268;28;20123;-76
2023/04/12 03:07:16;;;;;;;30.67;15.65;;;;;;;8.01;70.04;94278.03;5067302;28;20035;-76
2023/04/12 03:09:43;;;;;;;24.27;15.07;;;;;;;7.86;70.07;94252.53;5069214;28;20134;-77
2023/04/12 03:12:08;;;;;;;28.70;16.48;;;;;;;7.92;70.41;94263.88;5068526;28;20411;-76
2023/04/12 03:14:34;;;;;;;34.92;17.48;;;;;;;7.85;71.03;94258.13;5067348;28;20035;-77
2023/04/12 03:16:59;;;;;;;28.23;16.33;;;;;;;8.02;71.27;94283.03;5068765;28;20032;-77
2023/04/12 03:19:27;;;;;;;30.20;17.63;;;;;;;8.02;71.74;94284.88;5068957;28;20105;-77
2023/04/12 03:21:53;;;;;;;35.15;20.13;;;;;;;8.12;71.48;94285.56;5066861;28;20128;-76
2023/04/12 03:24:18;;;;;;;32.90;18.48;;;;;;;8.08;72.22;94286.44;5067631;28;20501;-76
2023/04/12 03:26:44;;;;;;;37.10;18.98;;;;;;;7.97;72.65;94250.63;5068676;28;20028;-76
2023/04/12 03:29:09;;;;;;;34.55;19.85;;;;;;;8.11;72.92;94283.22;5067052;28;20505;-76
2023/04/12 03:31:35;;;;;;;37.33;20.52;;;;;;;8.01;73.16;94259.56;5067825;28;20033;-76
2023/04/12 03:34:01;;;;;;;37.33;19.45;;;;;;;8.07;72.83;94280.34;5069146;28;20054;-76
2023/04/12 03:36:26;;;;;;;38.05;18.63;;;;;;;7.92;73.11;94256.75;5066946;28;20033;-76
2023/04/12 03:38:53;;;;;;;34.38;20.67;;;;;;;7.72;72.86;94236.59;5067049;28;20051;-76
2023/04/12 03:41:22;;;;;;;41.42;21.50;;;;;;;7.95;72.85;94266.72;5066795;28;20414;-76
2023/04/12 03:43:47;;;;;;;36.70;20.80;;;;;;;7.90;73.15;94248.31;5068027;28;20055;-76
2023/04/12 03:46:14;;;;;;;48.05;23.23;;;;;;;8.19;73.58;94290.53;5068220;28;20087;-76
2023/04/12 03:48:40;;;;;;;37.95;21.70;;;;;;;8.16;72.73;94324.66;5067081;28;20033;-76
2023/04/12 03:51:07;;;;;;;31.67;19.60;;;;;;;7.65;72.44;94215.00;5068091;28;20051;-77
2023/04/12 03:53:33;;;;;;;37.42;21.27;;;;;;;8.00;72.63;94276.47;5067652;28;20032;-77
2023/04/12 03:55:58;;;;;;;32.22;19.50;;;;;;;8.15;72.38;94300.09;5068724;28;20032;-76
2023/04/12 03:58:24;;;;;;;31.40;19.25;;;;;;;8.04;72.22;94277.47;5068041;28;20036;-76
2023/04/12 04:00:49;;;;;;;38.70;19.95;;;;;;;8.21;72.30;94306.88;5069100;28;20033;-77
2023/04/12 04:03:18;;;;;;;38.15;20.23;;;;;;;7.86;71.88;94238.59;5071424;28;20032;-77
2023/04/12 04:05:43;;;;;;;35.22;20.02;;;;;;;7.70;71.84;94224.75;5071799;28;20124;-77
2023/04/12 04:08:09;;;;;;;34.55;19.33;;;;;;;8.17;71.74;94292.66;5071062;28;20115;-76
2023/04/12 04:10:34;;;;;;;35.30;19.75;;;;;;;8.20;71.80;94304.53;5070600;28;20029;-77
2023/04/12 04:13:00;;;;;;;33.50;19.02;;;;;;;8.07;72.09;94279.56;5070140;28;20040;-76
2023/04/12 04:15:26;;;;;;;40.40;21.40;;;;;;;7.79;71.92;94264.50;5069849;28;20123;-77
2023/04/12 04:17:51;;;;;;;39.75;21.00;;;;;;;7.90;71.95;94276.56;5071764;28;20031;-76
2023/04/12 04:20:18;;;;;;;35.03;20.20;;;;;;;8.15;71.90;94329.13;5070065;28;20086;-76
2023/04/12 04:22:46;;;;;;;34.58;20.58;;;;;;;7.97;72.00;94295.50;5070208;28;20071;-76
2023/04/12 04:25:13;;;;;;;37.65;20.65;;;;;;;7.89;71.66;94288.97;5069577;28;20165;-77
2023/04/12 04:27:40;;;;;;;37.67;21.02;;;;;;;8.08;71.80;94318.91;5071626;28;20538;-77
2023/04/12 04:30:07;;;;;;;42.75;21.67;;;;;;;8.20;71.83;94350.22;5072262;28;20401;-76
2023/04/12 04:32:32;;;;;;;42.35;21.63;;;;;;;8.17;72.07;94360.53;5070277;28;20063;-76
2023/04/12 04:34:58;;;;;;;35.40;19.92;;;;;;;8.15;71.62;94345.00;5070815;28;20068;-77
2023/04/12 04:37:25;;;;;;;35.10;20.30;;;;;;;7.62;71.78;94260.44;5069949;28;20449;-76
2023/04/12 04:39:50;;;;;;;34.25;19.70;;;;;;;8.13;71.20;94353.19;5070337;28;20040;-77
2023/04/12 04:42:16;;;;;;;41.90;20.33;;;;;;;7.92;71.46;94312.19;5071555;28;20028;-77
2023/04/12 04:44:42;;;;;;;39.33;21.88;;;;;;;7.92;71.20;94317.47;5069382;28;20048;-76
2023/04/12 04:47:08;;;;;;;37.97;19.20;;;;;;;8.06;71.10;94358.00;5070975;28;20029;-76
2023/04/12 04:49:34;;;;;;;37.28;19.63;;;;;;;8.05;71.58;94361.69;5067204;28;20105;-76
2023/04/12 04:52:00;;;;;;;37.25;19.98;;;;;;;7.54;71.13;94278.72;5066590;28;20048;-76
2023/04/12 04:54:25;;;;;;;39.10;20.58;;;;;;;7.86;70.85;94323.06;5068734;28;20033;-76
2023/04/12 05:07:37;;;;;;;35.17;17.35;;;;;;;7.71;69.65;94316.81;4584898;22;20049;-76
2023/04/12 05:10:03;;;;;;;34.03;18.23;;;;;;;8.06;69.59;94371.19;5013275;28;20142;-76
2023/04/12 05:12:30;;;;;;;34.17;17.90;;;;;;;8.05;69.64;94379.41;5030848;28;20037;-76
2023/04/12 05:14:55;;;;;;;31.77;17.45;;;;;;;8.06;69.20;94389.69;5001476;28;20124;-77
2023/04/12 05:17:30;;;;;;;33.80;18.38;;;;;;;7.97;69.15;94359.66;4967467;28;20049;-77
2023/04/12 05:19:56;;;;;;;32.15;17.05;;;;;;;8.06;68.78;94386.25;5000520;28;20041;-77
2023/04/12 05:22:22;;;;;;;28.13;16.42;;;;;;;8.07;68.76;94388.63;5009050;28;20041;-76
2023/04/12 05:24:48;;;;;;;25.17;14.98;;;;;;;8.11;67.87;94387.00;5032035;28;20041;-76
2023/04/12 05:27:15;;;;;;;21.95;13.10;;;;;;;7.99;67.38;94362.03;5003374;28;20514;-76
2023/04/12 05:29:41;;;;;;;27.27;13.95;;;;;;;7.83;66.99;94326.25;5009267;28;20038;-76
2023/04/12 05:32:07;;;;;;;21.58;12.80;;;;;;;7.88;67.01;94342.81;5001310;28;20038;-76
2023/04/12 05:34:32;;;;;;;24.83;13.80;;;;;;;7.91;66.72;94339.63;4991848;28;20044;-76
2023/04/12 05:36:58;;;;;;;22.85;12.75;;;;;;;8.16;66.89;94374.81;5022530;28;20037;-77
2023/04/12 05:39:24;;;;;;;20.00;12.23;;;;;;;8.25;65.92;94404.84;5012954;28;20478;-77
2023/04/12 05:41:50;;;;;;;23.90;12.68;;;;;;;8.34;66.13;94400.56;5023944;28;20116;-78
2023/04/12 05:44:15;;;;;;;20.83;12.45;;;;;;;8.41;65.73;94393.09;5028753;28;20063;-77
2023/04/12 05:46:41;;;;;;;18.50;10.38;;;;;;;8.11;64.47;94352.66;5029955;28;20050;-77
2023/04/12 05:49:07;;;;;;;28.00;11.60;;;;;;;8.26;65.17;94385.28;5007984;28;20478;-78
2023/04/12 05:51:32;;;;;;;26.92;10.65;;;;;;;8.14;64.41;94356.59;5009901;28;20068;-76
2023/04/12 05:53:58;;;;;;;16.92;9.55;;;;;;;8.13;64.00;94355.03;5026914;28;20057;-77
2023/04/12 05:56:23;;;;;;;20.45;9.60;;;;;;;8.40;63.13;94404.72;5006842;28;20044;-76
2023/04/12 05:58:48;;;;;;;20.58;10.30;;;;;;;8.28;63.65;94365.47;5011051;28;20037;-77
2023/04/12 06:01:18;;;;;;;18.40;9.57;;;;;;;8.25;62.75;94381.06;5011694;28;20033;-77
2023/04/12 06:03:43;;;;;;;20.45;8.95;;;;;;;8.16;62.30;94374.81;5021665;28;20041;-77
2023/04/12 06:06:09;;;;;;;18.60;9.25;;;;;;;8.33;62.79;94407.69;5013121;28;20041;-76
2023/04/12 06:08:36;;;;;;;15.77;9.18;;;;;;;8.30;62.82;94402.16;5009419;28;20026;-78
2023/04/12 06:11:05;;;;;;;14.45;8.30;;;;;;;8.29;62.64;94419.88;4992036;28;20061;-77
2023/04/12 06:13:30;;;;;;;16.27;8.82;;;;;;;8.21;62.98;94398.53;4982838;28;20030;-77
2023/04/12 06:15:56;;;;;;;14.43;8.15;;;;;;;8.17;63.21;94403.56;5008396;28;20038;-77
2023/04/12 06:18:21;;;;;;;13.35;8.18;;;;;;;8.22;63.37;94423.91;5024076;28;20033;-77
2023/04/12 06:20:47;;;;;;;12.48;8.13;;;;;;;7.94;63.53;94394.50;5011093;28;20487;-77
2023/04/12 06:23:12;;;;;;;13.73;8.18;;;;;;;8.17;63.83;94432.63;4994046;28;20034;-77
2023/04/12 06:25:38;;;;;;;16.65;8.57;;;;;;;8.18;64.48;94444.78;5007464;28;20037;-77
2023/04/12 06:28:03;;;;;;;15.55;8.82;;;;;;;8.21;68.19;94431.03;4992137;28;20571;-77
2023/04/12 06:30:29;;;;;;;15.60;8.82;;;;;;;8.02;66.79;94436.19;5010622;28;20396;-77
2023/04/12 06:32:55;;;;;;;16.73;8.20;;;;;;;7.91;67.39;94424.13;5027729;28;20028;-77
2023/04/12 06:35:21;;;;;;;16.15;7.78;;;;;;;7.83;67.13;94423.91;5009184;28;20022;-77
2023/04/12 06:37:46;;;;;;;12.82;7.25;;;;;;;7.75;67.00;94415.50;5010144;28;20119;-77
2023/04/12 06:40:12;;;;;;;13.98;7.47;;;;;;;7.55;67.89;94364.72;5007662;28;20515;-77
2023/04/12 06:42:38;;;;;;;11.38;6.90;;;;;;;7.89;65.79;94420.16;5010471;28;20026;-77
2023/04/12 06:45:04;;;;;;;17.08;7.05;;;;;;;7.53;66.91;94377.41;5009190;28;20143;-77
2023/04/12 06:47:31;;;;;;;14.57;7.18;;;;;;;7.93;66.34;94419.38;5007373;28;20038;-77
2023/04/12 06:49:57;;;;;;;17.25;7.45;;;;;;;7.94;66.43;94401.66;5014320;28;20037;-77
2023/04/12 06:52:26;;;;;;;20.10;7.53;;;;;;;8.12;66.32;94428.19;4990599;28;20524;-78
2023/04/12 06:54:52;;;;;;;16.05;6.38;;;;;;;7.89;65.34;94391.91;5004427;28;20036;-78
2023/04/12 06:57:17;;;;;;;15.23;6.25;;;;;;;8.16;64.57;94411.81;5011413;28;20539;-75
2023/04/12 06:59:43;;;;;;;14.90;5.43;;;;;;;8.21;66.08;94401.97;5024559;28;20118;-75
2023/04/12 07:02:09;;;;;;;15.48;7.20;;;;;;;8.25;64.26;94418.84;5020341;28;20472;-75
2023/04/12 07:04:34;;;;;;;8.02;6.50;;;;;;;7.66;65.13;94300.25;5004999;28;20120;-76
2023/04/12 07:06:59;;;;;;;8.98;5.70;;;;;;;8.34;64.10;94404.00;5011421;28;20081;-76
2023/04/12 07:09:25;;;;;;;9.82;5.18;;;;;;;8.28;62.94;94396.38;5012413;28;20025;-76
2023/04/12 07:11:51;;;;;;;10.95;5.75;;;;;;;8.44;63.10;94400.50;5010196;28;20037;-76
2023/04/12 07:14:16;;;;;;;10.93;5.45;;;;;;;8.32;62.73;94347.22;5005430;28;20126;-76
2023/04/12 07:16:42;;;;;;;8.35;5.07;;;;;;;8.73;61.17;94397.81;5016753;28;20525;-76
2023/04/12 07:19:07;;;;;;;11.40;5.75;;;;;;;8.69;61.40;94391.53;5028906;28;20048;-75
2023/04/12 07:21:33;;;;;;;6.75;5.10;;;;;;;8.50;60.74;94367.66;5028503;28;20029;-76
2023/04/12 07:23:58;;;;;;;12.43;5.57;;;;;;;8.79;60.69;94380.81;5003140;28;20057;-76
2023/04/12 07:26:24;;;;;;;13.48;5.72;;;;;;;8.84;60.18;94381.59;5019040;28;20117;-76
2023/04/12 07:28:50;;;;;;;11.38;5.65;;;;;;;9.03;59.96;94388.75;5010436;28;20400;-76
2023/04/12 07:31:16;;;;;;;12.95;6.28;;;;;;;9.00;60.03;94394.63;4992126;28;20100;-76
2023/04/12 07:33:42;;;;;;;12.63;6.25;;;;;;;8.97;60.16;94372.16;5010337;28;20042;-75
2023/04/12 07:36:08;;;;;;;10.30;5.57;;;;;;;9.03;59.40;94416.00;4995791;28;20419;-76
2023/04/12 07:38:33;;;;;;;8.98;5.38;;;;;;;8.81;59.36;94376.06;5035194;28;20041;-75
2023/04/12 07:40:59;;;;;;;10.73;6.18;;;;;;;8.85;59.79;94385.78;5018423;28;20097;-76
2023/04/12 07:43:24;;;;;;;7.82;5.45;;;;;;;8.78;60.25;94350.97;5014351;28;20156;-75
2023/04/12 07:45:50;;;;;;;9.93;5.50;;;;;;;9.06;60.15;94404.88;5013190;28;20415;-76
2023/04/12 07:48:16;;;;;;;7.22;5.18;;;;;;;8.66;58.93;94331.28;5009727;28;20120;-76
2023/04/12 07:50:42;;;;;;;13.73;5.35;;;;;;;8.85;59.05;94398.22;5003298;28;20407;-76
2023/04/12 07:53:22;;;;;;;9.35;4.85;;;;;;;9.14;58.56;94392.88;5033543;28;20503;-76
2023/04/12 07:55:48;;;;;;;7.70;5.70;;;;;;;9.26;57.98;94419.69;5015728;28;20061;-76
2023/04/12 07:58:15;;;;;;;5.95;4.28;;;;;;;9.18;55.20;94344.41;5022332;28;20034;-76
2023/04/12 08:00:41;;;;;;;12.32;4.20;;;;;;;9.35;55.07;94351.84;5025007;28;20022;-76
2023/04/12 08:03:07;;;;;;;6.35;3.80;;;;;;;9.30;55.02;94349.28;5022977;28;20590;-76
2023/04/12 08:05:33;;;;;;;6.80;3.70;;;;;;;9.31;54.28;94355.38;5012381;28;20041;-75
2023/04/12 08:07:59;;;;;;;7.90;3.55;;;;;;;9.42;53.05;94352.28;5017013;28;20040;-78
2023/04/12 08:10:24;;;;;;;6.05;3.35;;;;;;;9.50;52.68;94401.16;5017784;28;20399;-76
2023/04/12 08:12:49;;;;;;;7.60;3.10;;;;;;;9.34;53.29;94345.00;5017000;28;20036;-76
2023/04/12 08:15:15;;;;;;;4.82;3.22;;;;;;;9.09;53.54;94326.78;5034430;28;20120;-76
2023/04/12 08:17:42;;;;;;;8.57;3.25;;;;;;;9.31;53.26;94363.31;5016047;28;20041;-75
2023/04/12 08:20:08;;;;;;;7.88;3.47;;;;;;;9.14;53.37;94337.31;5017957;28;20124;-76
2023/04/12 08:22:34;;;;;;;6.50;3.08;;;;;;;9.19;52.20;94377.72;5016269;28;20110;-76
2023/04/12 08:25:00;;;;;;;5.38;3.80;;;;;;;8.96;52.63;94365.31;5026046;28;20037;-76
2023/04/12 08:27:25;;;;;;;7.90;2.75;;;;;;;8.89;51.57;94347.16;5026848;28;20037;-76
2023/04/12 08:29:51;;;;;;;3.85;3.17;;;;;;;8.80;50.86;94309.16;5036273;28;20033;-76
2023/04/12 08:32:16;;;;;;;8.60;2.55;;;;;;;8.84;50.49;94307.56;5006737;28;20040;-76
2023/04/12 08:34:42;;;;;;;5.05;3.25;;;;;;;9.21;50.60;94341.19;5013944;28;20152;-76
2023/04/12 08:37:07;;;;;;;5.40;2.58;;;;;;;9.10;49.01;94313.28;5017589;28;20068;-76
2023/04/12 08:39:33;;;;;;;6.57;3.05;;;;;;;9.32;48.49;94343.69;5036961;28;20049;-76
2023/04/12 08:41:59;;;;;;;5.05;2.70;;;;;;;9.30;47.96;94314.88;5022802;28;20034;-76
2023/04/12 08:44:37;;;;;;;3.47;2.35;;;;;;;9.35;46.63;94351.84;5034405;28;20095;-76
2023/04/12 08:47:04;;;;;;;3.85;2.85;;;;;;;9.65;47.17;94399.09;5018113;28;20455;-76
2023/04/12 08:49:31;;;;;;;8.82;2.60;;;;;;;9.66;47.73;94371.53;5032385;28;20075;-76
2023/04/12 08:52:01;;;;;;;7.13;2.38;;;;;;;9.66;46.63;94376.84;5014215;28;20041;-76
2023/04/12 08:54:27;;;;;;;8.63;2.17;;;;;;;9.42;46.20;94325.03;5033403;28;20056;-74
2023/04/12 08:56:57;;;;;;;7.88;2.50;;;;;;;9.83;45.91;94362.31;5015260;28;20187;-75
2023/04/12 08:59:26;;;;;;;9.95;2.35;;;;;;;9.94;46.13;94376.94;5009215;28;20042;-74
2023/04/12 09:01:52;;;;;;;4.97;2.08;;;;;;;9.84;45.82;94338.16;5015634;28;20124;-74
2023/04/12 09:04:18;;;;;;;3.60;2.22;;;;;;;9.72;46.01;94353.72;5023862;28;20048;-74
2023/04/12 09:06:43;;;;;;;10.10;2.38;;;;;;;9.95;45.61;94349.38;5011975;28;20057;-75
2023/04/12 09:09:09;;;;;;;5.50;2.33;;;;;;;9.50;43.03;94303.22;5014800;28;20041;-75
2023/04/12 09:11:35;;;;;;;4.60;2.00;;;;;;;9.98;44.54;94356.78;5000660;28;20145;-75
2023/04/12 09:14:01;;;;;;;5.10;2.03;;;;;;;9.95;43.98;94331.63;5001627;28;20113;-75
2023/04/12 09:16:37;;;;;;;12.10;2.63;;;;;;;10.06;44.53;94341.00;4997225;28;20128;-74
2023/04/12 09:19:04;;;;;;;4.80;1.80;;;;;;;10.14;44.09;94322.88;5014833;28;20491;-75
2023/04/12 09:21:33;;;;;;;7.53;2.55;;;;;;;10.38;43.92;94336.75;5013716;28;20033;-75
2023/04/12 09:24:08;;;;;;;7.03;2.15;;;;;;;10.37;42.56;94340.53;4999010;28;20025;-75
2023/04/12 09:26:35;;;;;;;7.00;2.05;;;;;;;10.47;41.78;94352.78;5018357;28;20021;-76
2023/04/12 09:29:01;;;;;;;4.60;1.80;;;;;;;10.57;41.70;94347.31;5024031;28;20042;-76
2023/04/12 09:31:27;;;;;;;3.78;1.85;;;;;;;10.44;40.60;94325.81;5021447;28;20490;-76
2023/04/12 09:34:06;;;;;;;6.60;1.92;;;;;;;10.63;40.28;94341.63;5013673;28;20033;-76
2023/04/12 09:36:39;;;;;;;3.70;1.83;;;;;;;10.15;40.50;94277.50;5021958;28;20131;-76
2023/04/12 09:39:05;;;;;;;4.22;2.13;;;;;;;10.24;39.58;94299.66;5005099;28;20037;-76
2023/04/12 09:41:31;;;;;;;7.10;1.70;;;;;;;10.54;39.66;94361.16;4996358;28;20097;-76
2023/04/12 09:43:57;;;;;;;7.47;1.98;;;;;;;10.36;40.13;94315.88;5029682;28;20438;-76
2023/04/12 09:46:23;;;;;;;4.03;2.28;;;;;;;10.60;39.89;94309.63;5029975;28;20041;-75
2023/04/12 09:49:01;;;;;;;6.97;1.90;;;;;;;10.77;39.61;94305.28;5030318;28;20049;-76
2023/04/12 09:51:32;;;;;;;3.78;1.80;;;;;;;10.93;39.86;94294.38;5012574;28;20407;-76
2023/04/12 09:54:02;;;;;;;2.38;1.65;;;;;;;10.98;40.10;94244.66;5030959;28;20633;-76
2023/04/12 09:56:32;;;;;;;6.88;2.53;;;;;;;11.52;38.22;94251.66;5013034;28;20041;-76
2023/04/12 09:59:06;;;;;;;5.03;2.05;;;;;;;11.59;40.59;94288.44;5009214;28;20063;-75
2023/04/12 10:01:35;;;;;;;4.65;2.03;;;;;;;11.56;41.46;94286.38;5031003;28;20422;-75
2023/04/12 10:04:02;;;;;;;7.60;1.88;;;;;;;11.74;38.56;94281.97;5029268;28;20092;-76
2023/04/12 10:06:28;;;;;;;5.18;1.92;;;;;;;12.23;37.13;94273.06;5012872;28;20103;-75
2023/04/12 10:08:54;;;;;;;6.43;1.95;;;;;;;12.61;34.12;94254.78;5030672;28;20045;-75
2023/04/12 10:11:20;;;;;;;3.45;1.80;;;;;;;12.59;33.89;94235.69;5029511;28;20029;-75
2023/04/12 10:13:46;;;;;;;15.02;2.15;;;;;;;12.63;31.90;94247.28;5030518;28;20040;-76
2023/04/12 10:16:12;;;;;;;4.60;1.60;;;;;;;13.33;31.26;94275.66;5025862;28;20033;-76
2023/04/12 10:18:38;;;;;;;10.05;2.33;;;;;;;13.87;30.60;94237.72;5026763;28;20040;-76
2023/04/12 10:21:05;;;;;;;4.07;1.58;;;;;;;13.95;30.66;94184.69;4997277;28;20107;-76
2023/04/12 10:23:31;;;;;;;7.78;2.10;;;;;;;14.42;28.51;94250.28;5012387;28;20022;-76
2023/04/12 10:25:57;;;;;;;7.70;1.65;;;;;;;14.26;28.80;94266.00;5027410;28;20555;-77
2023/04/12 10:28:23;;;;;;;7.90;1.67;;;;;;;14.37;28.76;94262.97;5012080;28;20029;-76
2023/04/12 10:30:50;;;;;;;6.85;1.85;;;;;;;14.65;28.51;94240.16;5012387;28;20492;-77
2023/04/12 10:33:18;;;;;;;6.47;1.25;;;;;;;14.12;28.13;94265.41;5009204;28;20031;-76
2023/04/12 10:36:07;;;;;;;3.80;1.48;;;;;;;13.95;29.31;94235.34;5027023;28;20041;-76
2023/04/12 10:38:45;;;;;;;4.22;1.80;;;;;;;14.49;29.19;94263.16;5007968;28;20120;-76
2023/04/12 10:41:18;;;;;;;5.25;1.75;;;;;;;15.11;28.15;94263.28;5011330;28;20030;-76
2023/04/12 10:43:47;;;;;;;3.72;1.13;;;;;;;14.91;26.63;94278.19;4994493;28;20096;-76
2023/04/12 10:46:46;;;;;;;4.53;1.55;;;;;;;14.74;27.62;94208.88;5012607;28;20033;-77
2023/04/12 10:49:15;;;;;;;5.97;1.35;;;;;;;14.78;27.25;94270.41;4961585;28;20432;-76
2023/04/12 10:52:02;;;;;;;3.50;1.30;;;;;;;14.68;27.83;94264.31;5004333;28;20030;-76
2023/04/12 10:54:28;;;;;;;3.83;1.20;;;;;;;14.70;27.07;94260.53;5013501;28;20049;-76
2023/04/12 10:56:54;;;;;;;5.65;1.52;;;;;;;15.00;26.44;94246.09;5007992;28;20033;-76
2023/04/12 10:59:20;;;;;;;4.65;1.30;;;;;;;14.84;26.63;94203.16;5008191;28;20127;-76
2023/04/12 11:02:10;;;;;;;3.17;1.48;;;;;;;14.94;26.91;94232.16;5007091;28;20033;-76
2023/04/12 11:04:36;;;;;;;4.17;1.80;;;;;;;14.85;26.80;94219.97;5015513;28;20388;-76
2023/04/12 11:07:10;;;;;;;8.32;1.80;;;;;;;15.34;25.76;94215.69;5009895;28;20049;-76
2023/04/12 11:09:35;;;;;;;5.18;1.30;;;;;;;15.51;25.27;94278.91;5009253;28;20581;-77
2023/04/12 11:12:04;;;;;;;3.30;1.48;;;;;;;15.62;25.09;94256.06;5010337;28;20045;-76
2023/04/12 11:14:50;;;;;;;3.28;1.77;;;;;;;15.55;25.56;94221.88;5012353;28;20033;-76
2023/04/12 11:17:15;;;;;;;1.70;1.13;;;;;;;15.25;25.53;94237.16;5011606;28;20041;-76
2023/04/12 11:19:49;;;;;;;3.85;1.58;;;;;;;15.01;25.96;94223.63;5029394;28;20048;-76
2023/04/12 11:22:17;;;;;;;5.70;1.60;;;;;;;15.24;26.44;94240.94;5028679;28;20035;-76
2023/04/12 11:24:48;;;;;;;2.83;0.90;;;;;;;15.20;26.59;94199.16;5011793;28;20029;-80
2023/04/12 11:27:17;;;;;;;1.52;1.08;;;;;;;14.91;26.68;94195.44;5027598;28;20060;-81
2023/04/12 11:29:45;;;;;;;2.45;1.63;;;;;;;15.12;26.57;94232.03;5038583;28;20760;-81
2023/04/12 11:32:12;;;;;;;5.90;1.65;;;;;;;14.37;26.03;94065.63;5031645;28;20033;-80
2023/04/12 11:34:39;;;;;;;3.70;1.52;;;;;;;14.86;26.35;94141.44;5025109;28;20033;-80
2023/04/12 11:37:08;;;;;;;6.20;1.50;;;;;;;15.49;26.60;94217.00;5010179;28;20466;-81
2023/04/12 11:39:44;;;;;;;5.07;1.83;;;;;;;15.37;25.73;94212.38;5014513;28;20026;-80
2023/04/12 11:42:15;;;;;;;1.98;1.20;;;;;;;15.42;26.28;94146.16;5018837;28;20025;-80
2023/04/12 11:44:43;;;;;;;3.45;1.58;;;;;;;15.34;25.97;94156.94;5016738;28;20025;-80